ETIC

Details ICAO ETIC
Name GRAFENWOHR AAF
Region Germany - Military
Timezone Europe/Berlin (UTC+2.0)
Plans Departing 5
Arriving 6
Stats Elevation 1,363 ft / 415 m (AMSL)
Location 49.698687° 11.940176°
Runways 1
Magnetic Variation 3.303° E
Sunrise 2018-05-21 03:21:30 UTC / 2018-05-21 05:21:30 Local
Sunset 2018-05-21 18:59:00 UTC / 2018-05-21 20:59:00 Local
Advertisement - Login to hide

Runways

ID Width Length Bearing (true) Bearing (mag) Surface Threshold Offset Overrun Length
14 73 ft / 22 m 3,296 ft / 1,005 m 143.52° 140.22° Asphalt 0 ft / 0 m 0 ft / 0 m
32 73 ft / 22 m 3,296 ft / 1,005 m 323.52° 320.22° Asphalt 0 ft / 0 m 0 ft / 0 m

Map

Weather


0- 5 10 15 20 25 30 35+ Temperature / ° C

Clouds and Precipitation
Forecast for 2018-05-21 00:00 UTC. Updated 3 hours ago

Ground ~20,000 ft ~40,000 ft Winds

METAR

ETIC 210056Z AUTO 08003KT 9999 CLR 13/09 A3009 RMK AO2 SLP183 T01300085 $

TAF

TAF ETIC 202236Z 2022/2204 10009KT 9999 SCT080 QNH3009INS BECMG 2105/2106 08012G20KT 9999 SKC QNH2995INS BECMG 2113/2114 10012KT 9999 VCTS SCT040CB BKN150 QNH2991INS BECMG 2117/2118 09012KT 9999 NSW FEW040 QNH2990INS TX23/2114Z TN08/2104Z

Frequencies

Tower 122.10 MHz GRAF TWR
Warning: Do not use this data for real-world aviation or navigation. No guarantee of current accuracy is given.